Time;durP1;ratioP1;P1;durP2;ratioP2;P2;SDS_P1;SDS_P2;PMS_P1;PMS_P2;Temp;Humidity;BMP_temperature;BMP_pressure;BME280_temperature;BME280_humidity;BME280_pressure;Samples;Min_cycle;Max_cycle;Signal;HPM_P1;HPM_P2
2023/12/10 00:02:14;;;;;;;43.88;11.65;;;;;;;-146.58;100.00;69501.63;5049249;28;20127;-63
2023/12/10 00:04:40;;;;;;;36.47;9.73;;;;;;;-146.58;100.00;69501.63;5050506;28;20016;-63
2023/12/10 00:07:06;;;;;;;46.10;9.95;;;;;;;8.18;100.00;162704.06;5049232;28;20048;-63
2023/12/10 00:09:31;;;;;;;50.78;11.23;;;;;;;8.19;100.00;162706.78;5055161;28;20561;-62
2023/12/10 00:11:57;;;;;;;39.90;8.55;;;;;;;8.15;100.00;162696.00;5069010;28;20048;-63
2023/12/10 00:14:26;;;;;;;46.45;12.02;;;;;;;8.20;100.00;162709.47;5070513;28;20028;-63
2023/12/10 00:16:51;;;;;;;32.80;10.50;;;;;;;8.16;100.00;162698.66;5054416;28;20519;-63
2023/12/10 00:19:17;;;;;;;52.95;11.48;;;;;;;8.17;100.00;162700.03;5050423;28;20017;-63
2023/12/10 00:21:42;;;;;;;42.00;8.15;;;;;;;8.30;100.00;162733.75;5049243;28;20210;-63
2023/12/10 00:24:08;;;;;;;34.90;9.10;;;;;;;8.39;100.00;162757.97;5050589;28;20025;-63
2023/12/10 00:26:33;;;;;;;50.55;12.73;;;;;;;8.45;100.00;162774.13;5056543;28;20037;-63
2023/12/10 00:28:59;;;;;;;38.75;11.60;;;;;;;8.55;100.00;162801.16;5049326;28;20480;-63
2023/12/10 00:31:24;;;;;;;34.35;10.40;;;;;;;8.59;100.00;162809.28;5050451;28;20357;-63
2023/12/10 00:33:49;;;;;;;40.88;9.18;;;;;;;8.62;100.00;162817.34;5050039;28;20087;-63
2023/12/10 00:36:15;;;;;;;26.27;8.63;;;;;;;8.57;100.00;162806.56;5048643;28;20048;-63
2023/12/10 00:38:42;;;;;;;39.90;10.35;;;;;;;8.54;100.00;162798.47;5050940;28;20503;-63
2023/12/10 00:41:10;;;;;;;44.78;12.75;;;;;;;8.49;100.00;162785.00;5048892;28;20068;-63
2023/12/10 00:43:36;;;;;;;37.10;10.13;;;;;;;8.44;100.00;162770.13;5049965;28;20035;-63
2023/12/10 00:46:01;;;;;;;35.83;8.50;;;;;;;8.46;100.00;162776.84;5049020;28;20037;-63
2023/12/10 00:48:26;;;;;;;56.70;14.60;;;;;;;8.48;100.00;162780.97;5049792;28;20036;-63
2023/12/10 00:50:52;;;;;;;30.15;7.00;;;;;;;8.50;100.00;162787.72;5049137;28;20195;-63
2023/12/10 00:53:17;;;;;;;40.80;12.63;;;;;;;8.52;100.00;162793.09;5049892;28;20056;-64
2023/12/10 00:55:44;;;;;;;33.67;11.13;;;;;;;8.54;100.00;162797.16;5047619;28;20048;-63
2023/12/10 00:58:11;;;;;;;35.53;9.35;;;;;;;8.55;100.00;162801.16;5054653;28;20046;-63
2023/12/10 01:00:36;;;;;;;30.98;8.88;;;;;;;8.62;100.00;162817.34;5052512;28;20079;-64
2023/12/10 01:03:04;;;;;;;32.08;7.20;;;;;;;8.63;100.00;162820.03;5053866;28;20028;-63
2023/12/10 01:05:29;;;;;;;21.40;8.20;;;;;;;8.68;100.00;162833.50;5052885;28;20068;-63
2023/12/10 01:07:55;;;;;;;55.13;11.68;;;;;;;8.66;100.00;162828.16;5071355;28;20078;-64
2023/12/10 01:10:20;;;;;;;33.28;10.45;;;;;;;8.55;100.00;162801.16;5072103;28;20455;-61
2023/12/10 01:12:46;;;;;;;54.03;11.15;;;;;;;8.48;100.00;162782.28;5074289;28;20028;-61
2023/12/10 01:15:11;;;;;;;26.05;10.85;;;;;;;8.39;100.00;162759.34;5072528;28;20522;-63
2023/12/10 01:17:36;;;;;;;31.83;8.07;;;;;;;8.34;100.00;162744.50;5055117;28;20037;-61
2023/12/10 01:20:05;;;;;;;33.47;9.35;;;;;;;8.32;100.00;162739.09;5062272;28;20055;-63
2023/12/10 01:22:30;;;;;;;51.10;11.07;;;;;;;8.25;100.00;162722.94;5073655;28;20032;-63
2023/12/10 01:24:57;;;;;;;33.88;9.15;;;;;;;8.19;100.00;162705.44;5060151;28;20045;-63
2023/12/10 01:27:23;;;;;;;33.50;8.88;;;;;;;8.08;100.00;162677.09;5053761;28;20052;-63
2023/12/10 01:29:48;;;;;;;41.92;11.30;;;;;;;8.01;100.00;162658.22;5052584;28;20496;-63
2023/12/10 01:32:13;;;;;;;27.20;10.00;;;;;;;7.93;100.00;162639.38;5053029;28;20028;-63
2023/12/10 01:34:41;;;;;;;29.08;8.52;;;;;;;7.83;100.00;162611.06;5061409;28;20048;-63
2023/12/10 01:37:06;;;;;;;27.52;10.75;;;;;;;7.78;100.00;162599.00;5073411;28;20067;-63
2023/12/10 01:39:33;;;;;;;41.08;9.02;;;;;;;7.72;100.00;162582.78;5071555;28;20554;-63
2023/12/10 01:41:58;;;;;;;38.85;12.65;;;;;;;7.61;100.00;162555.88;5069319;28;20033;-63
2023/12/10 01:44:24;;;;;;;42.50;10.35;;;;;;;7.59;100.00;162550.47;5051682;28;20037;-64
2023/12/10 01:46:50;;;;;;;37.08;9.10;;;;;;;7.58;100.00;162547.75;5055096;28;20020;-63
2023/12/10 01:49:17;;;;;;;42.00;9.32;;;;;;;7.60;100.00;162551.78;5071745;28;20029;-63
2023/12/10 01:51:44;;;;;;;39.30;9.50;;;;;;;7.62;100.00;162558.56;5072318;28;20017;-63
2023/12/10 01:54:22;;;;;;;44.42;9.27;;;;;;;7.62;100.00;162558.56;5051540;28;20025;-63
2023/12/10 01:56:51;;;;;;;32.10;8.98;;;;;;;7.68;100.00;162572.03;5053292;28;20384;-63
2023/12/10 01:59:18;;;;;;;35.65;8.88;;;;;;;7.70;100.00;162577.44;5051325;28;20056;-62
2023/12/10 02:01:45;;;;;;;43.47;9.63;;;;;;;7.67;100.00;162569.31;5053003;28;20349;-63
2023/12/10 02:04:11;;;;;;;36.75;11.98;;;;;;;7.67;100.00;162569.31;5051816;28;20082;-62
2023/12/10 02:06:37;;;;;;;42.90;11.95;;;;;;;7.66;100.00;162568.00;5052473;28;20025;-63
2023/12/10 02:09:09;;;;;;;33.60;9.23;;;;;;;7.62;100.00;162558.56;5050867;28;20063;-62
2023/12/10 02:11:35;;;;;;;39.70;8.57;;;;;;;7.68;100.00;162572.03;5053130;28;20056;-62
2023/12/10 02:14:00;;;;;;;37.95;9.98;;;;;;;7.63;100.00;162561.22;5051501;28;20029;-62
2023/12/10 02:16:26;;;;;;;31.70;7.22;;;;;;;7.62;100.00;162557.19;5052249;28;20044;-62
2023/12/10 02:18:51;;;;;;;36.15;8.88;;;;;;;7.61;100.00;162555.88;5054215;28;20043;-62
2023/12/10 02:21:18;;;;;;;41.75;8.38;;;;;;;7.66;100.00;162568.00;5050914;28;20496;-64
2023/12/10 02:24:09;;;;;;;40.83;11.07;;;;;;;7.67;100.00;162569.31;5052275;28;20116;-64
2023/12/10 02:26:35;;;;;;;23.85;7.50;;;;;;;7.65;100.00;162563.94;5058400;28;20036;-64
2023/12/10 02:29:02;;;;;;;57.78;12.00;;;;;;;7.66;100.00;162566.63;5071135;28;20028;-64
2023/12/10 02:31:29;;;;;;;34.78;10.50;;;;;;;7.60;100.00;162553.16;5056072;28;20480;-64
2023/12/10 02:33:54;;;;;;;31.25;9.02;;;;;;;7.67;100.00;162569.31;5052368;28;20070;-64
2023/12/10 02:36:19;;;;;;;27.40;7.30;;;;;;;7.62;100.00;162557.19;5050774;28;20053;-64
2023/12/10 02:38:48;;;;;;;26.08;6.70;;;;;;;7.53;100.00;162534.31;5052137;28;20464;-63
2023/12/10 02:41:13;;;;;;;26.30;7.53;;;;;;;7.55;100.00;162539.72;5050882;28;20052;-63
2023/12/10 02:43:38;;;;;;;31.05;8.50;;;;;;;7.55;100.00;162539.72;5052263;28;20028;-64
2023/12/10 02:46:04;;;;;;;33.13;8.93;;;;;;;7.52;100.00;162531.59;5047456;28;20090;-64
2023/12/10 02:48:29;;;;;;;39.20;9.95;;;;;;;7.51;100.00;162527.59;5051826;28;20480;-64
2023/12/10 02:50:55;;;;;;;36.38;8.00;;;;;;;7.47;100.00;162518.16;5051024;28;20040;-63
2023/12/10 02:53:21;;;;;;;22.55;6.72;;;;;;;7.43;100.00;162507.34;5051852;28;20083;-64
2023/12/10 02:55:47;;;;;;;40.20;10.13;;;;;;;7.39;100.00;162496.59;5053883;28;20079;-64
2023/12/10 02:58:12;;;;;;;28.15;7.63;;;;;;;7.41;100.00;162502.00;5071654;28;20115;-64
2023/12/10 03:00:37;;;;;;;32.67;9.38;;;;;;;7.37;100.00;162492.50;5070137;28;20044;-64
2023/12/10 03:03:03;;;;;;;26.45;6.80;;;;;;;7.34;100.00;162483.09;5072154;28;20025;-64
2023/12/10 03:05:28;;;;;;;34.15;8.18;;;;;;;7.32;100.00;162477.75;5070251;28;20391;-64
2023/12/10 03:07:54;;;;;;;36.15;6.97;;;;;;;7.26;100.00;162464.22;5071430;28;20020;-64
2023/12/10 03:10:20;;;;;;;35.35;7.35;;;;;;;7.32;100.00;162477.75;5070294;28;20037;-64
2023/12/10 03:12:45;;;;;;;35.97;11.13;;;;;;;7.29;100.00;162471.00;5071808;28;20081;-65
2023/12/10 03:15:10;;;;;;;20.90;7.85;;;;;;;7.29;100.00;162471.00;5069627;28;20506;-64
2023/12/10 03:17:36;;;;;;;34.08;8.63;;;;;;;7.25;100.00;162461.59;5056787;28;20442;-64
2023/12/10 03:20:03;;;;;;;26.38;6.72;;;;;;;7.27;100.00;162466.94;5049377;28;20163;-64
2023/12/10 03:22:29;;;;;;;46.13;8.35;;;;;;;7.24;100.00;162458.88;5051202;28;20032;-63
2023/12/10 03:24:54;;;;;;;39.45;11.50;;;;;;;7.26;100.00;162464.22;5050168;28;20021;-64
2023/12/10 03:27:19;;;;;;;23.15;7.40;;;;;;;7.21;100.00;162450.78;5051499;28;20415;-64
2023/12/10 03:29:45;;;;;;;31.67;8.18;;;;;;;7.17;100.00;162440.03;5049629;28;20400;-63
2023/12/10 03:32:10;;;;;;;25.40;6.95;;;;;;;7.13;100.00;162429.22;5051544;28;20123;-64
2023/12/10 03:34:36;;;;;;;39.80;10.20;;;;;;;7.12;100.00;162426.53;5049692;28;20041;-63
2023/12/10 03:37:02;;;;;;;29.83;10.73;;;;;;;6.98;100.00;162390.19;5051040;28;20045;-64
2023/12/10 03:39:27;;;;;;;38.67;9.02;;;;;;;7.08;100.00;162415.78;5049939;28;20063;-64
2023/12/10 03:41:52;;;;;;;32.15;7.43;;;;;;;7.05;100.00;162407.66;5051360;28;20407;-64
2023/12/10 03:44:18;;;;;;;43.10;14.43;;;;;;;7.09;100.00;162418.47;5049213;28;20052;-64
2023/12/10 03:46:43;;;;;;;28.80;7.95;;;;;;;7.02;100.00;162399.63;5050783;28;20021;-65
2023/12/10 03:49:09;;;;;;;37.10;8.25;;;;;;;7.06;100.00;162410.38;5050375;28;20033;-66
2023/12/10 03:51:34;;;;;;;33.30;8.75;;;;;;;7.09;100.00;162418.47;5066070;28;20021;-63
2023/12/10 03:54:00;;;;;;;22.92;6.80;;;;;;;7.06;100.00;162411.75;5049237;28;20028;-63
2023/12/10 03:56:25;;;;;;;32.03;8.32;;;;;;;7.07;100.00;162413.06;5050684;28;20025;-63
2023/12/10 03:58:51;;;;;;;23.73;8.70;;;;;;;7.04;100.00;162404.97;5051026;28;20043;-64
2023/12/10 04:01:17;;;;;;;23.73;7.53;;;;;;;7.04;100.00;162404.97;5049085;28;20033;-64
2023/12/10 04:03:42;;;;;;;36.95;9.38;;;;;;;7.04;100.00;162404.97;5051267;28;20021;-64
2023/12/10 04:06:08;;;;;;;25.55;7.47;;;;;;;6.99;100.00;162394.22;5049512;28;20094;-63
2023/12/10 04:08:33;;;;;;;38.22;12.07;;;;;;;7.03;100.00;162402.31;5050205;28;20029;-63
2023/12/10 04:10:58;;;;;;;61.45;12.70;;;;;;;7.02;100.00;162399.63;5049407;28;20041;-63
2023/12/10 04:13:24;;;;;;;37.40;10.57;;;;;;;7.00;100.00;162395.53;5050749;28;20024;-63
2023/12/10 04:15:49;;;;;;;41.08;10.70;;;;;;;6.89;100.00;162367.28;5054760;28;20492;-63
2023/12/10 04:18:15;;;;;;;25.90;6.60;;;;;;;7.01;100.00;162396.91;5070607;28;20031;-62
2023/12/10 04:20:43;;;;;;;30.60;10.10;;;;;;;6.99;100.00;162394.22;5069313;28;20044;-61
2023/12/10 04:23:09;;;;;;;;;;;;;;;7.01;100.00;162398.25;5070852;28;20016;-61
2023/12/10 04:25:34;;;;;;;46.08;13.10;;;;;;;7.01;100.00;162396.91;5069002;28;19912;-61
2023/12/10 04:27:59;;;;;;;33.90;7.88;;;;;;;7.01;100.00;162398.25;5070881;28;20035;-61
2023/12/10 04:30:26;;;;;;;36.28;7.15;;;;;;;7.02;100.00;162399.63;5063396;28;20124;-62
2023/12/10 04:32:55;;;;;;;46.38;11.57;;;;;;;7.01;100.00;162396.91;5067154;28;20028;-61
2023/12/10 04:35:20;;;;;;;43.40;11.45;;;;;;;7.01;100.00;162396.91;5068614;28;20040;-61
2023/12/10 04:37:46;;;;;;;29.58;10.50;;;;;;;7.01;100.00;162398.25;5070068;28;20044;-61
2023/12/10 04:40:12;;;;;;;41.35;11.65;;;;;;;7.09;100.00;162418.47;5066832;28;20572;-61
2023/12/10 04:42:41;;;;;;;38.17;11.00;;;;;;;7.09;100.00;162418.47;5050454;28;20036;-64
2023/12/10 04:45:07;;;;;;;31.23;8.13;;;;;;;7.10;100.00;162422.50;5048852;28;20087;-63
2023/12/10 04:47:33;;;;;;;48.08;9.25;;;;;;;7.10;100.00;162421.19;5050188;28;20061;-63
2023/12/10 04:49:58;;;;;;;41.78;9.32;;;;;;;7.11;100.00;162423.88;5049186;28;20060;-63
2023/12/10 04:52:24;;;;;;;33.90;9.50;;;;;;;7.13;100.00;162429.22;5050088;28;20081;-63
2023/12/10 04:54:49;;;;;;;38.33;10.60;;;;;;;6.98;100.00;162391.53;5048910;28;20492;-63
2023/12/10 04:57:14;;;;;;;24.42;9.45;;;;;;;7.16;100.00;162437.31;5050120;28;20032;-63
2023/12/10 04:59:40;;;;;;;31.55;7.32;;;;;;;7.15;100.00;162434.63;5048322;28;20041;-62
2023/12/10 05:02:05;;;;;;;41.22;8.73;;;;;;;7.11;100.00;162425.19;5070127;28;20115;-63
2023/12/10 05:04:31;;;;;;;33.13;7.80;;;;;;;7.11;100.00;162423.88;5068432;28;20040;-63
2023/12/10 05:06:56;;;;;;;36.85;11.13;;;;;;;7.12;100.00;162427.91;5069943;28;20071;-64
2023/12/10 05:09:21;;;;;;;33.35;9.32;;;;;;;7.11;100.00;162423.88;5057076;28;20396;-64
2023/12/10 05:11:47;;;;;;;38.33;8.70;;;;;;;7.12;100.00;162426.53;5050466;28;20029;-68
2023/12/10 05:14:12;;;;;;;35.95;8.27;;;;;;;7.12;100.00;162426.53;5048700;28;20163;-61
2023/12/10 05:16:38;;;;;;;35.33;9.55;;;;;;;7.17;100.00;162438.66;5050370;28;20025;-59
2023/12/10 05:19:03;;;;;;;41.35;10.02;;;;;;;7.17;100.00;162440.03;5048586;28;20029;-61
2023/12/10 05:21:30;;;;;;;32.17;7.55;;;;;;;7.20;100.00;162448.06;5049636;28;20024;-61
2023/12/10 05:23:56;;;;;;;43.15;9.65;;;;;;;7.20;100.00;162448.06;5048719;28;20029;-60
2023/12/10 05:26:21;;;;;;;40.72;8.82;;;;;;;7.19;100.00;162445.38;5058372;28;20017;-61
2023/12/10 05:28:46;;;;;;;34.88;8.05;;;;;;;7.15;100.00;162434.63;5069788;28;20016;-61
2023/12/10 05:31:12;;;;;;;37.33;9.63;;;;;;;7.16;100.00;162437.31;5068638;28;20048;-61
2023/12/10 05:33:37;;;;;;;39.10;9.60;;;;;;;7.19;100.00;162445.38;5070095;28;20151;-61
2023/12/10 05:36:03;;;;;;;25.33;7.78;;;;;;;7.20;100.00;162448.06;5067914;28;20657;-60
2023/12/10 05:38:28;;;;;;;20.17;7.15;;;;;;;7.19;100.00;162445.38;5067573;28;20036;-60
2023/12/10 05:40:54;;;;;;;39.75;9.30;;;;;;;7.20;100.00;162448.06;5048637;28;20041;-61
2023/12/10 05:43:19;;;;;;;43.67;8.23;;;;;;;7.19;100.00;162445.38;5052311;28;20083;-60
2023/12/10 05:45:44;;;;;;;40.13;9.05;;;;;;;7.20;100.00;162446.75;5052207;28;20033;-59
2023/12/10 05:48:10;;;;;;;36.20;10.25;;;;;;;7.15;100.00;162434.63;5053137;28;20029;-58
2023/12/10 05:50:35;;;;;;;26.23;5.78;;;;;;;7.24;100.00;162457.50;5050950;28;20187;-58
2023/12/10 05:53:03;;;;;;;40.72;10.65;;;;;;;7.27;100.00;162466.94;5051274;28;20044;-58
2023/12/10 05:55:29;;;;;;;39.88;11.38;;;;;;;7.29;100.00;162471.00;5050421;28;20492;-58
2023/12/10 05:57:55;;;;;;;48.17;14.07;;;;;;;7.35;100.00;162487.16;5052755;28;20037;-59
2023/12/10 06:00:21;;;;;;;30.20;7.68;;;;;;;7.39;100.00;162496.59;5051730;28;20095;-58
2023/12/10 06:02:46;;;;;;;33.22;11.40;;;;;;;7.41;100.00;162502.00;5051513;28;20036;-58
2023/12/10 06:05:11;;;;;;;46.67;9.93;;;;;;;7.44;100.00;162510.06;5049954;28;20040;-58
2023/12/10 06:07:37;;;;;;;44.97;11.25;;;;;;;7.44;100.00;162511.44;5065292;28;20557;-58
2023/12/10 06:10:02;;;;;;;32.05;11.60;;;;;;;7.49;100.00;162523.50;5069653;28;20044;-58
2023/12/10 06:12:28;;;;;;;35.83;9.13;;;;;;;7.52;100.00;162530.28;5043787;28;20032;-58
2023/12/10 06:14:53;;;;;;;30.50;8.63;;;;;;;7.54;100.00;162535.63;5050755;28;20091;-58
2023/12/10 06:17:18;;;;;;;29.90;8.55;;;;;;;7.55;100.00;162539.72;5051970;28;20025;-58
2023/12/10 06:19:44;;;;;;;32.85;9.75;;;;;;;7.59;100.00;162549.13;5048471;28;20102;-58
2023/12/10 06:22:09;;;;;;;32.88;7.53;;;;;;;7.70;100.00;162577.44;5072061;28;20028;-58
2023/12/10 06:24:35;;;;;;;35.47;7.28;;;;;;;7.68;100.00;162572.03;5067687;28;20044;-58
2023/12/10 06:27:00;;;;;;;26.05;10.15;;;;;;;7.67;100.00;162569.31;5049892;28;20016;-58
2023/12/10 06:29:25;;;;;;;30.85;8.60;;;;;;;7.69;100.00;162574.72;5047999;28;20047;-58
2023/12/10 06:31:51;;;;;;;33.70;7.75;;;;;;;7.63;100.00;162559.91;5052135;28;20020;-59
2023/12/10 06:34:16;;;;;;;24.58;7.55;;;;;;;7.61;100.00;162554.50;5049671;28;20048;-58
2023/12/10 06:36:42;;;;;;;33.47;10.30;;;;;;;7.57;100.00;162545.06;5060523;28;20059;-58
2023/12/10 06:39:07;;;;;;;31.02;7.40;;;;;;;7.50;100.00;162526.19;5061830;28;20029;-58
2023/12/10 06:41:32;;;;;;;24.55;6.78;;;;;;;7.46;100.00;162515.44;5050988;28;20044;-58
2023/12/10 06:43:58;;;;;;;26.88;5.60;;;;;;;7.43;100.00;162507.34;5049925;28;20033;-59
2023/12/10 06:46:23;;;;;;;37.05;11.05;;;;;;;7.39;100.00;162496.59;5050625;28;20027;-58
2023/12/10 06:48:49;;;;;;;32.58;9.50;;;;;;;7.38;100.00;162495.22;5049353;28;20036;-58
2023/12/10 06:51:14;;;;;;;41.53;12.10;;;;;;;7.41;100.00;162502.00;5044635;28;20041;-58
2023/12/10 06:53:42;;;;;;;24.48;7.95;;;;;;;7.40;100.00;162500.63;5050675;28;20024;-58
2023/12/10 06:56:08;;;;;;;42.70;9.30;;;;;;;7.40;100.00;162499.28;5048781;28;20587;-58
2023/12/10 06:58:34;;;;;;;27.08;8.07;;;;;;;7.52;100.00;162531.59;5051133;28;20025;-58
2023/12/10 07:00:59;;;;;;;33.28;10.38;;;;;;;7.57;100.00;162545.06;5050256;28;20504;-59
2023/12/10 07:03:25;;;;;;;31.15;8.50;;;;;;;7.57;100.00;162545.06;5067405;28;20024;-58
2023/12/10 07:05:51;;;;;;;29.05;7.00;;;;;;;7.65;100.00;162563.94;5069324;28;20569;-58
2023/12/10 07:08:16;;;;;;;26.25;7.95;;;;;;;7.66;100.00;162566.63;5071554;28;20025;-59
2023/12/10 07:10:41;;;;;;;34.38;10.23;;;;;;;7.65;100.00;162565.31;5059046;28;20396;-58
2023/12/10 07:13:07;;;;;;;49.08;12.55;;;;;;;7.62;100.00;162558.56;5051140;28;20075;-59
2023/12/10 07:15:32;;;;;;;40.92;11.80;;;;;;;7.67;100.00;162569.31;5049790;28;20047;-58
2023/12/10 07:17:59;;;;;;;30.08;8.30;;;;;;;7.68;100.00;162572.03;5050974;28;20025;-58
2023/12/10 07:20:24;;;;;;;38.22;8.55;;;;;;;7.61;100.00;162554.50;5048194;28;20073;-58
2023/12/10 07:22:49;;;;;;;25.65;7.13;;;;;;;7.59;100.00;162550.47;5051195;28;20025;-58
2023/12/10 07:25:15;;;;;;;26.65;7.35;;;;;;;7.60;100.00;162553.16;5060584;28;20037;-58
2023/12/10 07:27:41;;;;;;;62.47;9.50;;;;;;;7.56;100.00;162541.03;5069920;28;20024;-58
2023/12/10 07:30:07;;;;;;;34.92;11.18;;;;;;;7.53;100.00;162534.31;5043805;28;20041;-58
2023/12/10 07:32:33;;;;;;;35.83;9.20;;;;;;;7.58;100.00;162547.75;5051247;28;20147;-58
2023/12/10 07:34:58;;;;;;;36.90;10.60;;;;;;;7.54;100.00;162537.00;5039020;28;20713;-59
2023/12/10 07:37:24;;;;;;;31.27;7.82;;;;;;;7.56;100.00;162542.38;5048505;28;20044;-58
2023/12/10 07:39:49;;;;;;;27.17;8.32;;;;;;;7.56;100.00;162542.38;5049323;28;20048;-58
2023/12/10 07:42:14;;;;;;;29.73;8.35;;;;;;;7.55;100.00;162539.72;5048985;28;20025;-58
2023/12/10 07:44:40;;;;;;;23.15;6.35;;;;;;;7.58;100.00;162547.75;5049066;28;20037;-59
2023/12/10 07:47:05;;;;;;;24.58;9.70;;;;;;;7.63;100.00;162561.22;5042111;28;20496;-58
2023/12/10 07:49:31;;;;;;;17.50;5.95;;;;;;;7.58;100.00;162547.75;5032128;28;20104;-58
2023/12/10 07:51:57;;;;;;;23.35;5.90;;;;;;;7.58;100.00;162547.75;5050282;28;20369;-58
2023/12/10 07:54:22;;;;;;;23.75;7.43;;;;;;;7.57;100.00;162545.06;5049030;28;20044;-58
2023/12/10 07:56:47;;;;;;;33.35;7.97;;;;;;;7.60;100.00;162553.16;5049411;28;20028;-58
2023/12/10 07:59:13;;;;;;;24.00;7.60;;;;;;;7.59;100.00;162549.13;5048613;28;20431;-58
2023/12/10 08:01:39;;;;;;;45.20;11.70;;;;;;;7.59;100.00;162550.47;5050307;28;20024;-58
2023/12/10 08:04:04;;;;;;;34.30;7.93;;;;;;;7.59;100.00;162550.47;5046895;28;20025;-58
2023/12/10 08:06:30;;;;;;;24.00;5.85;;;;;;;7.63;100.00;162561.22;5049733;28;20024;-58
2023/12/10 08:08:55;;;;;;;19.27;7.32;;;;;;;7.67;100.00;162569.31;5049094;28;20025;-58
2023/12/10 08:11:21;;;;;;;35.25;9.23;;;;;;;7.67;100.00;162569.31;5048640;28;20518;-59
2023/12/10 08:13:47;;;;;;;36.40;10.23;;;;;;;7.70;100.00;162577.44;5050186;28;20032;-58
2023/12/10 08:16:12;;;;;;;27.95;7.05;;;;;;;7.72;100.00;162584.16;5048476;28;20041;-58
2023/12/10 08:18:38;;;;;;;39.15;8.98;;;;;;;7.74;100.00;162588.19;5048307;28;20032;-58
2023/12/10 08:21:03;;;;;;;35.03;9.85;;;;;;;7.74;100.00;162589.50;5048770;28;20048;-58
2023/12/10 08:23:28;;;;;;;30.95;8.93;;;;;;;7.74;100.00;162588.19;5050163;28;20060;-58
2023/12/10 08:25:54;;;;;;;42.83;10.35;;;;;;;7.70;100.00;162578.75;5046908;28;20618;-58
2023/12/10 08:28:19;;;;;;;38.22;6.97;;;;;;;7.67;100.00;162569.31;5049909;28;20029;-58
2023/12/10 08:30:45;;;;;;;36.42;9.32;;;;;;;7.75;100.00;162590.88;5048565;28;20381;-58
2023/12/10 08:33:10;;;;;;;30.33;9.00;;;;;;;7.74;100.00;162588.19;5047878;28;20025;-58
2023/12/10 08:35:35;;;;;;;24.02;7.40;;;;;;;7.76;100.00;162594.91;5040768;28;20045;-58
2023/12/10 08:38:01;;;;;;;29.17;7.00;;;;;;;7.70;100.00;162578.75;5029410;28;20049;-59
2023/12/10 08:40:26;;;;;;;38.90;10.80;;;;;;;7.68;100.00;162573.34;5041137;28;20503;-58
2023/12/10 08:42:52;;;;;;;25.58;8.63;;;;;;;7.70;100.00;162577.44;5069879;28;20028;-59
2023/12/10 08:45:17;;;;;;;35.63;8.10;;;;;;;7.70;100.00;162577.44;5064207;28;20458;-58
2023/12/10 08:47:43;;;;;;;38.40;11.70;;;;;;;7.69;100.00;162574.72;5047842;28;20090;-58
2023/12/10 08:50:08;;;;;;;41.63;8.52;;;;;;;7.67;100.00;162569.31;5043955;28;20424;-58
2023/12/10 08:52:34;;;;;;;31.90;10.63;;;;;;;7.69;100.00;162574.72;5049521;28;20028;-58
2023/12/10 08:55:01;;;;;;;53.72;11.30;;;;;;;7.60;100.00;162551.78;5047272;28;20045;-58
2023/12/10 08:57:26;;;;;;;40.20;9.82;;;;;;;7.65;100.00;162563.94;5049478;28;20104;-59
2023/12/10 08:59:51;;;;;;;22.73;6.65;;;;;;;7.69;100.00;162574.72;5048356;28;20060;-58
2023/12/10 09:02:18;;;;;;;28.02;5.72;;;;;;;7.65;100.00;162563.94;5048694;28;20033;-58
2023/12/10 09:04:43;;;;;;;30.42;7.70;;;;;;;7.59;100.00;162550.47;5067772;28;20059;-58
2023/12/10 09:07:09;;;;;;;48.92;12.50;;;;;;;7.70;100.00;162577.44;5069540;28;20020;-58
2023/12/10 09:09:34;;;;;;;50.15;10.20;;;;;;;7.73;100.00;162585.47;5056446;28;20044;-58
2023/12/10 09:11:59;;;;;;;30.58;10.55;;;;;;;7.80;100.00;162604.34;5029500;28;20025;-58
2023/12/10 09:14:25;;;;;;;24.77;7.57;;;;;;;7.82;100.00;162609.75;5045860;28;20384;-58
2023/12/10 09:16:51;;;;;;;27.40;8.48;;;;;;;7.88;100.00;162625.91;5057161;28;20032;-58
2023/12/10 09:19:17;;;;;;;47.45;9.38;;;;;;;7.91;100.00;162634.00;5064791;28;20549;-58
2023/12/10 09:21:43;;;;;;;26.98;6.22;;;;;;;7.92;100.00;162636.72;5061612;28;20037;-58
2023/12/10 09:24:09;;;;;;;30.90;8.25;;;;;;;7.90;100.00;162631.31;5035929;28;20029;-59
2023/12/10 09:26:34;;;;;;;46.35;10.80;;;;;;;7.99;100.00;162652.88;5043460;28;20021;-59
2023/12/10 09:29:00;;;;;;;29.90;9.57;;;;;;;8.07;100.00;162674.44;5051404;28;20094;-58
2023/12/10 09:31:25;;;;;;;29.90;6.72;;;;;;;8.07;100.00;162674.44;5051761;28;20529;-58
2023/12/10 09:33:51;;;;;;;18.90;6.00;;;;;;;8.13;100.00;162690.63;5052862;28;20392;-58
2023/12/10 09:36:17;;;;;;;44.50;12.55;;;;;;;8.08;100.00;162677.09;5051046;28;20052;-58
2023/12/10 09:38:42;;;;;;;24.67;6.00;;;;;;;8.01;100.00;162658.22;5052340;28;20029;-58
2023/12/10 09:41:08;;;;;;;42.22;9.10;;;;;;;8.12;100.00;162687.91;5057666;28;20495;-58
2023/12/10 09:43:33;;;;;;;25.25;6.57;;;;;;;8.15;100.00;162696.00;5072616;28;20032;-57
2023/12/10 09:46:01;;;;;;;25.83;8.43;;;;;;;8.02;100.00;162660.94;5070755;28;20078;-58
2023/12/10 09:48:27;;;;;;;22.20;6.55;;;;;;;8.13;100.00;162690.63;5072066;28;20112;-58
2023/12/10 09:50:53;;;;;;;22.58;5.65;;;;;;;8.08;100.00;162677.09;5071426;28;20064;-58
2023/12/10 09:53:21;;;;;;;29.85;8.20;;;;;;;8.13;100.00;162690.63;5058824;28;20067;-58
2023/12/10 09:55:46;;;;;;;36.45;7.60;;;;;;;8.16;100.00;162698.66;5044147;28;20141;-57
2023/12/10 09:58:12;;;;;;;26.30;7.18;;;;;;;8.19;100.00;162705.44;5036038;28;20014;-58
2023/12/10 10:00:37;;;;;;;32.08;7.70;;;;;;;8.22;100.00;162714.88;5045577;28;20049;-57
2023/12/10 10:03:03;;;;;;;19.65;5.25;;;;;;;8.18;100.00;162704.06;5051754;28;20388;-57
2023/12/10 10:05:28;;;;;;;29.08;7.32;;;;;;;8.26;100.00;162724.31;5066362;28;20051;-58
2023/12/10 10:07:53;;;;;;;28.80;8.05;;;;;;;8.30;100.00;162733.75;5057015;28;20629;-58
2023/12/10 10:10:22;;;;;;;18.23;7.82;;;;;;;8.32;100.00;162739.09;5069965;28;20052;-58
2023/12/10 10:12:48;;;;;;;;;;;;;;;8.38;100.00;162755.25;5060728;28;20025;-58
2023/12/10 10:15:13;;;;;;;27.25;6.60;;;;;;;8.37;100.00;162752.63;5047225;28;19936;-58
2023/12/10 10:17:42;;;;;;;33.65;9.90;;;;;;;8.37;100.00;162753.94;5042572;28;20036;-58
2023/12/10 10:20:09;;;;;;;;;;;;;;;8.41;100.00;162764.69;5048388;28;20174;-58
2023/12/10 10:22:35;;;;;;;23.23;8.88;;;;;;;8.41;100.00;162764.69;5056569;28;20417;-58
2023/12/10 10:25:00;;;;;;;26.48;6.75;;;;;;;8.46;100.00;162776.84;5053449;28;20041;-58
2023/12/10 10:27:26;;;;;;;18.00;7.88;;;;;;;8.49;100.00;162785.00;5051417;28;20023;-58
2023/12/10 10:29:54;;;;;;;50.15;7.28;;;;;;;8.46;100.00;162776.84;5050969;28;20045;-58
2023/12/10 10:32:20;;;;;;;22.02;7.28;;;;;;;8.44;100.00;162770.13;5050777;28;20029;-58
2023/12/10 10:34:46;;;;;;;28.15;7.97;;;;;;;8.41;100.00;162764.69;5050320;28;20128;-57
2023/12/10 10:37:16;;;;;;;51.80;8.15;;;;;;;8.44;100.00;162771.50;5069799;28;20583;-58
2023/12/10 10:39:42;;;;;;;28.23;5.60;;;;;;;8.51;100.00;162789.03;5069029;28;20135;-58
2023/12/10 10:42:10;;;;;;;22.00;5.80;;;;;;;8.54;100.00;162798.47;5054815;28;20118;-58
2023/12/10 10:44:36;;;;;;;26.87;8.10;;;;;;;8.59;100.00;162809.28;5049984;28;20036;-58
2023/12/10 10:47:05;;;;;;;21.50;6.15;;;;;;;8.55;100.00;162799.84;5050511;28;20032;-57
2023/12/10 10:49:33;;;;;;;23.55;6.53;;;;;;;8.51;100.00;162789.03;5050239;28;20044;-58
2023/12/10 10:52:02;;;;;;;31.38;8.40;;;;;;;8.59;100.00;162809.28;5049537;28;20387;-58
2023/12/10 10:54:28;;;;;;;14.90;6.93;;;;;;;8.62;100.00;162817.34;5033579;28;20545;-58
2023/12/10 10:56:54;;;;;;;44.15;10.38;;;;;;;8.59;100.00;162809.28;5050016;28;20116;-58
2023/12/10 10:59:30;;;;;;;18.33;4.63;;;;;;;8.65;100.00;162826.78;5039990;28;20033;-58
2023/12/10 11:01:59;;;;;;;24.98;5.30;;;;;;;8.65;100.00;162825.44;5041103;28;20032;-58
2023/12/10 11:04:24;;;;;;;;;;;;;;;8.70;100.00;162840.28;5054395;28;20404;-58
2023/12/10 11:06:50;;;;;;;18.25;4.85;;;;;;;8.66;100.00;162828.16;5069697;28;19919;-58
2023/12/10 11:09:17;;;;;;;21.85;5.45;;;;;;;8.72;100.00;162844.31;5068610;28;20041;-58
2023/12/10 11:11:42;;;;;;;31.15;4.90;;;;;;;8.80;100.00;162865.91;5051529;28;20021;-58